createdAt,value
2019-06-01T00:00:39.985Z,2.23
2019-06-01T00:03:17.473Z,2.17
2019-06-01T00:05:54.199Z,2.90
2019-06-01T00:08:30.008Z,2.03
2019-06-01T00:11:05.787Z,1.73
2019-06-01T00:13:41.861Z,1.97
2019-06-01T00:16:17.646Z,2.50
2019-06-01T00:18:53.771Z,2.50
2019-06-01T00:21:29.565Z,2.67
2019-06-01T00:24:05.684Z,3.77
2019-06-01T00:26:41.746Z,2.90
2019-06-01T00:29:17.613Z,3.13
2019-06-01T00:31:53.399Z,4.00
2019-06-01T00:34:29.713Z,7.00
2019-06-01T00:37:05.768Z,5.93
2019-06-01T00:39:41.834Z,7.03
2019-06-01T00:42:18.061Z,5.07
2019-06-01T00:44:54.154Z,5.50
2019-06-01T00:47:29.996Z,5.77
2019-06-01T00:50:07.402Z,4.90
2019-06-01T00:52:43.513Z,5.60
2019-06-01T00:55:19.324Z,3.70
2019-06-01T00:57:55.110Z,2.17
2019-06-01T01:00:43.319Z,2.60
2019-06-01T01:03:08.666Z,7.43
2019-06-01T01:05:44.658Z,1.90
2019-06-01T01:08:20.630Z,1.60
2019-06-01T01:10:56.677Z,3.03
2019-06-01T01:13:32.526Z,3.10
2019-06-01T01:16:09.373Z,3.57
2019-06-01T01:18:45.624Z,2.47
2019-06-01T01:21:21.571Z,3.90
2019-06-01T01:23:57.477Z,2.60
2019-06-01T01:26:33.282Z,2.10
2019-06-01T01:29:09.171Z,3.00
2019-06-01T01:31:44.982Z,2.27
2019-06-01T01:34:20.771Z,3.00
2019-06-01T01:36:56.583Z,1.70
2019-06-01T01:39:32.378Z,3.83
2019-06-01T01:42:08.451Z,4.30
2019-06-01T01:44:44.240Z,2.70
2019-06-01T01:47:20.179Z,3.23
2019-06-01T01:49:56.149Z,4.30
2019-06-01T01:52:32.372Z,3.93
2019-06-01T01:55:08.507Z,4.53
2019-06-01T01:57:44.589Z,4.90
2019-06-01T02:00:44.407Z,5.67
2019-06-01T02:03:20.217Z,3.57
2019-06-01T02:05:56.995Z,4.03
2019-06-01T02:08:32.906Z,4.80
2019-06-01T02:11:09.033Z,5.03
2019-06-01T02:13:45.273Z,3.10
2019-06-01T02:16:21.061Z,2.60
2019-06-01T02:18:57.567Z,4.00
2019-06-01T02:21:34.434Z,4.27
2019-06-01T02:24:10.266Z,2.87
2019-06-01T02:26:46.101Z,3.00
2019-06-01T02:29:22.179Z,3.57
2019-06-01T02:31:59.150Z,4.47
2019-06-01T02:34:38.526Z,6.90
2019-06-01T02:37:14.330Z,9.60
2019-06-01T02:39:50.141Z,6.80
2019-06-01T02:42:26.036Z,8.37
2019-06-01T02:45:03.549Z,5.27
2019-06-01T02:47:39.806Z,4.77
2019-06-01T02:50:16.255Z,4.17
2019-06-01T02:52:52.112Z,3.83
2019-06-01T02:55:29.104Z,3.90
2019-06-01T02:58:06.657Z,5.23
2019-06-01T03:00:50.300Z,6.37
2019-06-01T03:03:26.087Z,5.33
2019-06-01T03:06:03.825Z,7.63
2019-06-01T03:08:40.682Z,5.33
2019-06-01T03:11:19.515Z,3.60
2019-06-01T03:13:58.209Z,3.97
2019-06-01T03:16:40.035Z,7.40
2019-06-01T03:19:16.309Z,2.67
2019-06-01T03:21:54.448Z,1.97
2019-06-01T03:24:33.377Z,2.40
2019-06-01T03:27:12.723Z,2.60
2019-06-01T03:29:51.587Z,2.30
2019-06-01T03:32:35.896Z,3.13
2019-06-01T03:35:06.744Z,3.37
2019-06-01T03:37:42.705Z,2.70
2019-06-01T03:40:23.754Z,4.77
2019-06-01T03:42:56.644Z,6.00
2019-06-01T03:45:32.548Z,6.47
2019-06-01T03:48:08.751Z,7.13
2019-06-01T03:50:44.734Z,6.90
2019-06-01T03:53:20.775Z,4.43
2019-06-01T03:55:56.566Z,5.07
2019-06-01T03:58:32.382Z,2.33
2019-06-01T04:01:09.144Z,5.13
2019-06-01T04:03:45.416Z,7.53
2019-06-01T04:06:21.209Z,3.33
2019-06-01T04:08:57.021Z,7.17
2019-06-01T04:11:32.813Z,3.17
2019-06-01T04:14:09.648Z,3.30
2019-06-01T04:16:45.902Z,3.83
2019-06-01T04:19:21.712Z,4.53
2019-06-01T04:21:57.806Z,5.37
2019-06-01T04:24:33.954Z,6.53
2019-06-01T04:27:10.234Z,5.10
2019-06-01T04:29:46.223Z,3.90
2019-06-01T04:32:22.017Z,3.93
2019-06-01T04:34:58.020Z,4.80
2019-06-01T04:37:33.958Z,5.77
2019-06-01T04:40:10.027Z,5.73
2019-06-01T04:42:45.869Z,5.33
2019-06-01T04:45:21.723Z,7.77
2019-06-01T04:47:57.515Z,4.60
2019-06-01T04:50:34.239Z,6.20
2019-06-01T04:53:11.871Z,5.17
2019-06-01T04:55:47.556Z,6.20
2019-06-01T04:58:23.440Z,5.03
2019-06-01T05:00:59.242Z,6.47
2019-06-01T05:03:35.042Z,7.07
2019-06-01T05:06:11.334Z,8.23
2019-06-01T05:08:47.517Z,8.37
2019-06-01T05:11:23.607Z,8.50
2019-06-01T05:13:59.400Z,8.47
2019-06-01T05:16:35.203Z,7.50
2019-06-01T05:19:12.198Z,8.60
2019-06-01T05:21:48.177Z,11.40
2019-06-01T05:24:23.974Z,10.27
2019-06-01T05:27:00.006Z,10.80
2019-06-01T05:29:35.803Z,10.93
2019-06-01T05:32:12.612Z,13.00
2019-06-01T05:34:48.665Z,17.03
2019-06-01T05:37:24.480Z,13.90
2019-06-01T05:40:00.284Z,16.07
2019-06-01T05:42:36.342Z,14.13
2019-06-01T05:45:13.037Z,18.13
2019-06-01T05:47:48.885Z,14.13
2019-06-01T05:50:24.676Z,13.10
2019-06-01T05:53:00.904Z,13.37
2019-06-01T05:55:36.706Z,15.27
2019-06-01T05:58:12.976Z,14.33
2019-06-01T06:00:48.907Z,13.03
2019-06-01T06:03:39.559Z,13.97
2019-06-01T06:06:02.225Z,12.00
2019-06-01T06:08:38.065Z,13.07
2019-06-01T06:11:14.846Z,11.90
2019-06-01T06:13:50.995Z,11.73
2019-06-01T06:16:26.787Z,10.23
2019-06-01T06:19:02.604Z,9.03
2019-06-01T06:21:38.413Z,8.93
2019-06-01T06:24:14.506Z,8.73
2019-06-01T06:26:50.627Z,8.07
2019-06-01T06:29:27.511Z,14.10
2019-06-01T06:32:03.307Z,9.70
2019-06-01T06:34:39.413Z,7.73
2019-06-01T06:37:15.607Z,6.67
2019-06-01T06:39:51.495Z,9.30
2019-06-01T06:42:27.352Z,10.90
2019-06-01T06:45:03.933Z,7.67
2019-06-01T06:47:39.824Z,6.93
2019-06-01T06:50:17.847Z,7.00
2019-06-01T06:52:53.624Z,7.33
2019-06-01T06:55:29.652Z,5.70
2019-06-01T06:58:05.452Z,9.53
2019-06-01T07:00:41.256Z,7.70
2019-06-01T07:03:17.057Z,5.00
2019-06-01T07:05:53.000Z,6.07
2019-06-01T07:08:28.910Z,6.47
2019-06-01T07:11:04.723Z,6.27
2019-06-01T07:13:40.524Z,6.47
2019-06-01T07:16:16.581Z,4.13
2019-06-01T07:18:52.366Z,7.40
2019-06-01T07:21:28.192Z,4.53
2019-06-01T07:24:04.361Z,3.73
2019-06-01T07:26:40.305Z,7.13
2019-06-01T07:29:16.438Z,3.47
2019-06-01T07:31:52.231Z,4.67
2019-06-01T07:34:37.796Z,4.37
2019-06-01T07:37:05.537Z,6.63
2019-06-01T07:39:41.318Z,5.63
2019-06-01T07:42:17.129Z,3.83
2019-06-01T07:44:53.002Z,6.97
2019-06-01T07:47:29.210Z,6.53
2019-06-01T07:50:08.680Z,4.03
2019-06-01T07:52:44.838Z,5.83
2019-06-01T07:55:21.515Z,3.20
2019-06-01T07:57:57.571Z,4.20
2019-06-01T08:00:33.382Z,6.13
2019-06-01T08:03:09.263Z,3.60
2019-06-01T08:05:45.045Z,3.60
2019-06-01T08:08:22.229Z,2.50
2019-06-01T08:10:58.599Z,2.53
2019-06-01T08:13:35.815Z,5.30
2019-06-01T08:16:11.873Z,3.27
2019-06-01T08:18:48.013Z,2.93
2019-06-01T08:21:24.245Z,5.00
2019-06-01T08:24:00.504Z,2.40
2019-06-01T08:26:36.363Z,2.33
2019-06-01T08:29:12.449Z,4.80
2019-06-01T08:31:48.249Z,2.97
2019-06-01T08:34:24.760Z,7.83
2019-06-01T08:37:00.584Z,6.10
2019-06-01T08:39:37.458Z,3.50
2019-06-01T08:42:13.550Z,3.10
2019-06-01T08:44:49.681Z,3.90
2019-06-01T08:47:25.721Z,4.07
2019-06-01T08:50:01.764Z,2.83
2019-06-01T08:52:37.603Z,3.57
2019-06-01T08:55:13.482Z,3.03
2019-06-01T08:57:49.343Z,2.83
2019-06-01T09:00:26.322Z,4.93
2019-06-01T09:03:02.604Z,2.63
2019-06-01T09:05:38.489Z,2.53
2019-06-01T09:08:14.268Z,6.17
2019-06-01T09:10:50.383Z,2.33
2019-06-01T09:13:27.192Z,2.33
2019-06-01T09:16:03.439Z,3.43
2019-06-01T09:18:39.299Z,4.60
2019-06-01T09:21:15.303Z,5.13
2019-06-01T09:23:51.095Z,3.50
2019-06-01T09:26:27.769Z,2.47
2019-06-01T09:29:03.758Z,6.50
2019-06-01T09:31:39.687Z,4.97
2019-06-01T09:34:15.528Z,2.33
2019-06-01T09:36:51.345Z,4.13
2019-06-01T09:39:27.178Z,3.35
2019-06-01T09:42:03.592Z,4.90
2019-06-01T09:44:39.379Z,3.90
2019-06-01T09:47:15.181Z,4.67
2019-06-01T09:49:51.053Z,1.90
2019-06-01T09:52:27.389Z,3.77
2019-06-01T09:55:09.035Z,2.90
2019-06-01T09:57:45.142Z,6.00
2019-06-01T10:00:21.472Z,4.47
2019-06-01T10:02:57.603Z,3.87
2019-06-01T10:05:34.826Z,2.70
2019-06-01T10:08:11.014Z,2.42
2019-06-01T10:10:46.822Z,3.25
2019-06-01T10:13:22.677Z,2.17
2019-06-01T10:15:58.459Z,3.00
2019-06-01T10:18:35.305Z,4.03
2019-06-01T10:21:11.691Z,5.10
2019-06-01T10:23:49.515Z,4.67
2019-06-01T10:26:25.030Z,2.50
2019-06-01T10:29:01.225Z,4.17
2019-06-01T10:31:41.079Z,3.58
2019-06-01T10:34:14.712Z,2.65
2019-06-01T10:36:50.763Z,3.02
2019-06-01T10:39:26.575Z,1.82
2019-06-01T10:42:02.411Z,3.37
2019-06-01T10:44:43.467Z,3.45
2019-06-01T10:47:15.995Z,3.67
2019-06-01T10:49:51.867Z,2.87
2019-06-01T10:52:28.024Z,4.12
2019-06-01T10:55:07.627Z,2.47
2019-06-01T10:57:44.148Z,2.17
2019-06-01T11:00:37.006Z,2.77
2019-06-01T11:02:58.007Z,2.00
2019-06-01T11:05:34.984Z,2.70
2019-06-01T11:08:11.305Z,2.25
2019-06-01T11:10:47.470Z,2.45
2019-06-01T11:13:23.316Z,6.85
2019-06-01T11:15:59.123Z,5.42
2019-06-01T11:18:35.287Z,2.22
2019-06-01T11:21:11.249Z,2.22
2019-06-01T11:23:47.095Z,2.95
2019-06-01T11:26:22.918Z,1.82
2019-06-01T11:28:59.087Z,2.05
2019-06-01T11:31:35.983Z,3.17
2019-06-01T11:34:12.021Z,3.33
2019-06-01T11:37:04.198Z,3.47
2019-06-01T11:39:25.412Z,3.45
2019-06-01T11:42:01.612Z,2.80
2019-06-01T11:44:38.593Z,5.28
2019-06-01T11:47:14.713Z,2.10
2019-06-01T11:49:52.068Z,3.15
2019-06-01T11:52:27.900Z,3.10
2019-06-01T11:55:07.435Z,2.47
2019-06-01T11:57:44.329Z,3.40
2019-06-01T12:00:20.393Z,2.35
2019-06-01T12:02:56.213Z,2.83
2019-06-01T12:05:32.307Z,3.35
2019-06-01T12:08:08.139Z,2.35
2019-06-01T12:10:45.184Z,1.90
2019-06-01T12:13:21.273Z,1.20
2019-06-01T12:15:57.351Z,1.92
2019-06-01T12:18:33.161Z,3.20
2019-06-01T12:21:09.140Z,1.47
2019-06-01T12:23:45.646Z,1.37
2019-06-01T12:26:22.079Z,1.62
2019-06-01T12:28:57.950Z,1.50
2019-06-01T12:31:33.809Z,1.75
2019-06-01T12:34:09.622Z,1.72
2019-06-01T12:36:46.401Z,1.62
2019-06-01T12:39:22.652Z,4.92
2019-06-01T12:41:58.745Z,1.52
2019-06-01T12:44:34.554Z,3.25
2019-06-01T12:47:10.425Z,5.40
2019-06-01T12:49:46.350Z,2.35
2019-06-01T12:52:22.269Z,1.50
2019-06-01T12:54:59.052Z,2.37
2019-06-01T12:57:35.165Z,3.27
2019-06-01T13:00:11.686Z,2.72
2019-06-01T13:02:56.295Z,1.50
2019-06-01T13:05:25.203Z,2.30
2019-06-01T13:08:02.955Z,2.37
2019-06-01T13:10:38.582Z,2.50
2019-06-01T13:13:14.427Z,3.15
2019-06-01T13:15:51.416Z,3.10
2019-06-01T13:18:27.372Z,2.77
2019-06-01T13:21:03.479Z,2.30
2019-06-01T13:23:39.287Z,4.47
2019-06-01T13:26:15.119Z,2.52
2019-06-01T13:28:50.951Z,3.75
2019-06-01T13:31:26.793Z,2.58
2019-06-01T13:34:02.783Z,1.98
2019-06-01T13:36:38.625Z,2.00
2019-06-01T13:39:14.439Z,2.50
2019-06-01T13:41:51.524Z,4.21
2019-06-01T13:44:27.467Z,2.15
2019-06-01T13:47:04.399Z,2.90
2019-06-01T13:49:40.227Z,2.75
2019-06-01T13:52:16.064Z,3.05
2019-06-01T13:54:52.842Z,2.95
2019-06-01T13:57:28.935Z,1.92
2019-06-01T14:00:09.608Z,2.92
2019-06-01T14:02:50.443Z,2.67
2019-06-01T14:05:23.125Z,3.12
2019-06-01T14:07:58.950Z,2.95
2019-06-01T14:10:34.783Z,1.98
2019-06-01T14:13:10.593Z,2.00
2019-06-01T14:15:47.345Z,4.03
2019-06-01T14:18:23.307Z,2.92
2019-06-01T14:20:59.119Z,2.17
2019-06-01T14:23:34.931Z,1.55
2019-06-01T14:26:10.741Z,2.15
2019-06-01T14:28:46.590Z,2.67
2019-06-01T14:31:22.409Z,1.92
2019-06-01T14:33:58.265Z,2.62
2019-06-01T14:36:34.067Z,2.52
2019-06-01T14:39:09.914Z,3.35
2019-06-01T14:41:46.690Z,3.02
2019-06-01T14:44:22.717Z,1.98
2019-06-01T14:47:03.794Z,2.37
2019-06-01T14:49:36.294Z,3.27
2019-06-01T14:52:12.101Z,2.45
2019-06-01T14:54:47.970Z,2.00
2019-06-01T14:57:23.850Z,2.12
2019-06-01T14:59:59.864Z,2.27
2019-06-01T15:02:35.692Z,2.80
2019-06-01T15:05:13.085Z,3.37
2019-06-01T15:07:50.081Z,5.60
2019-06-01T15:10:27.002Z,4.92
2019-06-01T15:13:03.567Z,2.27
2019-06-01T15:15:39.494Z,2.37
2019-06-01T15:18:15.307Z,2.00
2019-06-01T15:20:51.699Z,2.12
2019-06-01T15:23:27.640Z,3.10
2019-06-01T15:26:03.525Z,1.98
2019-06-01T15:28:39.350Z,1.72
2019-06-01T15:31:15.427Z,2.00
2019-06-01T15:33:51.341Z,2.22
2019-06-01T15:36:27.144Z,1.25
2019-06-01T15:39:02.972Z,1.90
2019-06-01T15:41:39.750Z,2.35
2019-06-01T15:44:15.568Z,2.52
2019-06-01T15:46:51.598Z,3.27
2019-06-01T15:49:27.476Z,1.98
2019-06-01T15:52:03.293Z,2.40
2019-06-01T15:54:39.110Z,1.65
2019-06-01T15:57:15.244Z,2.85
2019-06-01T15:59:52.342Z,4.10
2019-06-01T16:02:28.717Z,2.12
2019-06-01T16:05:06.702Z,1.98
2019-06-01T16:07:42.542Z,1.55
2019-06-01T16:10:18.380Z,2.55
2019-06-01T16:12:55.324Z,2.25
2019-06-01T16:15:31.258Z,2.37
2019-06-01T16:18:07.360Z,2.02
2019-06-01T16:20:43.187Z,1.65
2019-06-01T16:23:19.041Z,2.62
2019-06-01T16:26:07.284Z,3.85
2019-06-01T16:28:32.936Z,2.20
2019-06-01T16:31:08.752Z,2.50
2019-06-01T16:33:46.175Z,1.27
2019-06-01T16:36:22.121Z,2.58
2019-06-01T16:39:03.075Z,2.95
2019-06-01T16:41:35.480Z,2.37
2019-06-01T16:44:11.308Z,1.90
2019-06-01T16:46:47.118Z,3.00
2019-06-01T16:49:27.071Z,1.20
2019-06-01T16:52:01.288Z,1.90
2019-06-01T16:54:37.322Z,2.27
2019-06-01T16:57:13.391Z,2.75
2019-06-01T16:59:49.294Z,2.67
2019-06-01T17:02:25.418Z,3.08
2019-06-01T17:05:01.291Z,3.45
2019-06-01T17:07:37.775Z,1.70
2019-06-01T17:10:25.796Z,3.17
2019-06-01T17:12:52.927Z,5.25
2019-06-01T17:15:29.193Z,2.05
2019-06-01T17:18:09.659Z,2.70
2019-06-01T17:20:49.636Z,2.92
2019-06-01T17:23:27.877Z,1.67
2019-06-01T17:26:04.062Z,1.55
2019-06-01T17:28:40.133Z,1.65
2019-06-01T17:31:15.975Z,2.05
2019-06-01T17:33:51.839Z,1.90
2019-06-01T17:36:27.971Z,1.80
2019-06-01T17:39:06.065Z,5.30
2019-06-01T17:41:41.939Z,2.35
2019-06-01T17:44:17.763Z,3.95
2019-06-01T17:46:54.214Z,2.02
2019-06-01T17:49:30.298Z,3.42
2019-06-01T17:52:07.676Z,3.77
2019-06-01T17:54:43.648Z,4.33
2019-06-01T17:57:19.486Z,4.67
2019-06-01T17:59:55.314Z,3.08
2019-06-01T18:02:31.158Z,4.30
2019-06-01T18:05:08.276Z,2.67
2019-06-01T18:07:44.319Z,3.65
2019-06-01T18:10:21.669Z,6.25
2019-06-01T18:12:57.526Z,12.23
2019-06-01T18:15:34.505Z,6.87
2019-06-01T18:18:10.621Z,4.10
2019-06-01T18:20:46.569Z,2.87
2019-06-01T18:23:22.490Z,3.65
2019-06-01T18:25:58.328Z,4.03
2019-06-01T18:28:34.189Z,2.45
2019-06-01T18:31:16.919Z,3.08
2019-06-01T18:33:55.114Z,3.62
2019-06-01T18:36:31.217Z,2.77
2019-06-01T18:39:07.805Z,4.45
2019-06-01T18:41:43.796Z,2.83
2019-06-01T18:44:19.624Z,4.17
2019-06-01T18:46:55.438Z,2.95
2019-06-01T18:49:31.812Z,3.05
2019-06-01T18:52:08.642Z,2.90
2019-06-01T18:54:44.702Z,3.98
2019-06-01T18:57:21.577Z,4.90
2019-06-01T18:59:57.549Z,3.35
2019-06-01T19:02:33.378Z,5.90
2019-06-01T19:05:11.162Z,1.50
2019-06-01T19:07:47.054Z,3.95
2019-06-01T19:10:23.090Z,2.47
2019-06-01T19:12:58.907Z,1.75
2019-06-01T19:15:34.813Z,5.60
2019-06-01T19:18:10.656Z,3.98
2019-06-01T19:20:46.521Z,3.65
2019-06-01T19:23:23.407Z,1.98
2019-06-01T19:25:59.231Z,1.72
2019-06-01T19:28:35.087Z,3.58
2019-06-01T19:31:11.257Z,3.17
2019-06-01T19:33:47.312Z,3.50
2019-06-01T19:36:23.184Z,3.22
2019-06-01T19:38:59.829Z,2.73
2019-06-01T19:41:44.698Z,4.55
2019-06-01T19:44:13.675Z,2.70
2019-06-01T19:46:49.664Z,2.53
2019-06-01T19:49:26.538Z,5.53
2019-06-01T19:52:02.656Z,4.13
2019-06-01T19:54:38.661Z,7.43
2019-06-01T19:57:18.914Z,4.83
2019-06-01T19:59:51.964Z,2.83
2019-06-01T20:02:33.678Z,3.33
2019-06-01T20:05:06.764Z,4.43
2019-06-01T20:07:42.549Z,4.07
2019-06-01T20:10:18.549Z,3.50
2019-06-01T20:12:54.388Z,2.97
2019-06-01T20:15:30.492Z,4.87
2019-06-01T20:18:06.618Z,3.13
2019-06-01T20:20:42.433Z,5.10
2019-06-01T20:23:19.559Z,4.10
2019-06-01T20:25:55.473Z,4.73
2019-06-01T20:28:31.312Z,4.47
2019-06-01T20:31:07.537Z,3.53
2019-06-01T20:33:43.698Z,5.53
2019-06-01T20:36:20.197Z,4.57
2019-06-01T20:38:56.233Z,3.83
2019-06-01T20:41:32.018Z,2.77
2019-06-01T20:44:08.303Z,3.80
2019-06-01T20:46:45.239Z,3.50
2019-06-01T20:49:22.739Z,2.57
2019-06-01T20:51:58.659Z,2.83
2019-06-01T20:54:34.521Z,4.20
2019-06-01T20:57:10.391Z,4.70
2019-06-01T20:59:46.572Z,3.77
2019-06-01T21:02:24.048Z,3.47
2019-06-01T21:04:59.983Z,2.83
2019-06-01T21:07:35.798Z,5.50
2019-06-01T21:10:12.132Z,3.47
2019-06-01T21:12:48.441Z,3.50
2019-06-01T21:15:24.315Z,7.53
2019-06-01T21:18:00.124Z,6.03
2019-06-01T21:20:35.907Z,4.13
2019-06-01T21:23:12.238Z,4.67
2019-06-01T21:25:48.027Z,5.33
2019-06-01T21:28:25.741Z,3.77
2019-06-01T21:31:02.149Z,3.43
2019-06-01T21:33:38.146Z,4.80
2019-06-01T21:36:15.150Z,2.93
2019-06-01T21:38:51.434Z,3.33
2019-06-01T21:41:27.216Z,4.13
2019-06-01T21:44:03.100Z,6.23
2019-06-01T21:46:40.028Z,3.73
2019-06-01T21:49:15.847Z,2.87
2019-06-01T21:51:53.023Z,4.03
2019-06-01T21:54:29.047Z,4.40
2019-06-01T21:57:05.332Z,6.10
2019-06-01T21:59:41.144Z,6.97
2019-06-01T22:02:18.415Z,4.57
2019-06-01T22:04:55.571Z,4.97
2019-06-01T22:07:31.363Z,5.43
2019-06-01T22:10:07.504Z,4.50
2019-06-01T22:12:43.611Z,5.03
2019-06-01T22:15:19.510Z,3.67
2019-06-01T22:17:55.291Z,3.70
2019-06-01T22:20:31.309Z,3.80
2019-06-01T22:23:07.095Z,4.33
2019-06-01T22:25:43.396Z,6.10
2019-06-01T22:28:20.319Z,4.70
2019-06-01T22:30:56.267Z,6.03
2019-06-01T22:33:32.133Z,4.30
2019-06-01T22:36:07.943Z,5.47
2019-06-01T22:38:43.729Z,4.67
2019-06-01T22:41:19.884Z,4.97
2019-06-01T22:43:55.816Z,4.60
2019-06-01T22:46:32.720Z,4.30
2019-06-01T22:49:08.638Z,4.37
2019-06-01T22:51:44.451Z,5.00
2019-06-01T22:54:21.037Z,5.90
2019-06-01T22:56:56.943Z,5.57
2019-06-01T22:59:32.901Z,7.83
2019-06-01T23:02:08.743Z,4.53
2019-06-01T23:04:44.537Z,4.27
2019-06-01T23:07:20.915Z,5.07
2019-06-01T23:09:56.808Z,5.73
2019-06-01T23:12:32.677Z,6.53
2019-06-01T23:15:08.598Z,5.13
2019-06-01T23:17:45.782Z,6.40
2019-06-01T23:20:21.778Z,4.40
2019-06-01T23:22:57.765Z,7.67
2019-06-01T23:25:34.167Z,7.07
2019-06-01T23:28:09.980Z,6.40
2019-06-01T23:30:45.938Z,5.00
2019-06-01T23:33:22.726Z,4.20
2019-06-01T23:35:58.578Z,4.30
2019-06-01T23:38:34.375Z,5.10
2019-06-01T23:41:10.219Z,7.47
2019-06-01T23:43:46.004Z,4.30
2019-06-01T23:46:22.839Z,4.10
2019-06-01T23:48:58.750Z,6.13
2019-06-01T23:51:34.538Z,6.57
2019-06-01T23:54:10.603Z,4.57
2019-06-01T23:56:46.463Z,7.20
2019-06-01T23:59:22.258Z,5.00
